Zum Inhalt wechseln

Willkommen bei der ILS

Das Flightforum ist ein kostenloser Dienst der Interessengemeinschaft Luftfahrt Schweiz. Um den vollen Funktionsumfang nutzen zu können, wie etwa die Suchfunktion, ist eine Anmeldung mit dem persönlichen Account erforderlich. Wer noch keinen solchen Account besitzt, kann sich kostenlos registrieren.

Foto
- - - - -

METAR/TAF LFTZ La Mole/St.Tropez


  • Bitte melde dich an um zu Antworten
3 Antworten in diesem Thema

#1 oldchris

oldchris
  • ILS-Mitglied
  • 2.547 Beiträge

Geschrieben 06 Juli 2016 - 07:40

Ist es möglich (wo) das Metar von LFTZ vom 2.Juli 2016 ca 11:00 LT zu checken ?


chris
nur fliegen ist schöner
www.hofmaenner-racing.ch

#2 Chipart

Chipart
  • Registrierter Benutzer
  • 5.005 Beiträge
  • Privatpilot

Geschrieben 06 Juli 2016 - 08:20

Veröffentlicht LFTZ Metars/TAFs? Bei Flugwetter.de gibt es nämlich kein aktuelles...

Wenn es das gibt, dann sollte es bei www.ogimet.com zu finden sein. Historische Wetterdaten für die Region sollte es bei www.wunderground.com geben.

Florian

#3 ArminZ

ArminZ
  • Registrierter Benutzer
  • 678 Beiträge
  • Privatpilot, Fluglehrer, Ultralight-Pilot

Geschrieben 23 Juli 2016 - 11:40

Plätze in der Nähe (Toulon-Hyéres und Le Luc-Le Cannet)

 

METAR LFTH 020930Z AUTO 19009KT 170V240 CAVOK 25/20 Q1016 BECMG 25020KT=
METAR LFTH 020900Z AUTO 20008KT CAVOK 25/20 Q1016 BECMG 25020KT=
METAR LFTH 020830Z AUTO 22010KT CAVOK 25/20 Q1016 NOSIG=

METAR LFMC 020930Z AUTO 27007KT 230V290 9999 // ////// 30/17 Q1015=
METAR LFMC 020900Z AUTO 26009KT 9999 // ////// 29/16 Q1016=
METAR LFMC 020830Z AUTO 27007KT 220V290 9999 // ////// 28/16 Q1016=

 

Eine private Wetterstation 3NM südlich in Cavalaire-Sur-Mer: http://weather.glads....net/site/E5345

Wind nicht wirklich aussagekräftig(?) Download der letzten 56 Tage in Excel http://weather.glads...ys=56&type=.iqy

 

EDIT: typos


Bearbeitet von ArminZ, 26 Juli 2016 - 11:52 .

  • oldchris sagt danke

Gruss // Armin
 


#4 cosy

cosy
  • Registrierter Benutzer
  • 416 Beiträge
  • Privatpilot, Ultralight-Pilot

Geschrieben 09 Januar 2017 - 07:20

Was genau soll bei LFMC nicht stimmen?
Cosy